Time;durP1;ratioP1;P1;durP2;ratioP2;P2;SDS_P1;SDS_P2;PMS_P1;PMS_P2;Temp;Humidity;BMP_temperature;BMP_pressure;BME280_temperature;BME280_humidity;BME280_pressure;Samples;Min_cycle;Max_cycle;Signal;HPM_P1;HPM_P2
2023/12/19 00:00:40;;;;;;;;;;;;;;;;;;6290385;28;20395;-81
2023/12/19 00:03:40;;;;;;;;;;;;;;;;;;6335393;28;20375;-81
2023/12/19 00:06:40;;;;;;;;;;;;;;;;;;6325968;28;19920;-81
2023/12/19 00:09:40;;;;;;;;;;;;;;;;;;6322975;28;19962;-81
2023/12/19 00:12:40;;;;;;;;;;;;;;;;;;6321965;28;19919;-81
2023/12/19 00:15:40;;;;;;;;;;;;;;;;;;6342535;28;19957;-81
2023/12/19 00:18:40;;;;;;;;;;;;;;;;;;6316072;28;19923;-81
2023/12/19 00:21:41;;;;;;;;;;;;;;;;;;6321700;28;20388;-80
2023/12/19 00:24:41;;;;;;;;;;;;;;;;;;6342064;28;20010;-81
2023/12/19 00:27:41;;;;;;;;;;;;;;;;;;6341600;28;19911;-82
2023/12/19 00:30:41;;;;;;;;;;;;;;;;;;6345722;28;19919;-80
2023/12/19 00:33:41;;;;;;;;;;;;;;;;;;6341221;28;19916;-81
2023/12/19 00:36:41;;;;;;;;;;;;;;;;;;6344904;28;19920;-81
2023/12/19 00:39:41;;;;;;;;;;;;;;;;;;6333073;28;19912;-81
2023/12/19 00:42:42;;;;;;;;;;;;;;;;;;6337574;28;19926;-82
2023/12/19 00:45:42;;;;;;;;;;;;;;;;;;6332552;28;19952;-81
2023/12/19 00:48:42;;;;;;;;;;;;;;;;;;6343319;28;19916;-81
2023/12/19 00:51:42;;;;;;;;;;;;;;;;;;6326129;28;20295;-81
2023/12/19 00:54:42;;;;;;;;;;;;;;;;;;6324428;28;19920;-80
2023/12/19 00:57:42;;;;;;;;;;;;;;;;;;6336854;28;19946;-81
2023/12/19 01:00:43;;;;;;;;;;;;;;;;;;6343072;28;19928;-82
2023/12/19 01:03:43;;;;;;;;;;;;;;;;;;6327460;28;19935;-82
2023/12/19 01:06:43;;;;;;;;;;;;;;;;;;6344527;28;19920;-82
2023/12/19 01:09:43;;;;;;;;;;;;;;;;;;6345908;28;19945;-81
2023/12/19 01:12:43;;;;;;;;;;;;;;;;;;6326145;28;19956;-82
2023/12/19 01:15:44;;;;;;;;;;;;;;;;;;6328070;28;19916;-81
2023/12/19 01:18:44;;;;;;;;;;;;;;;;;;6340759;28;19912;-81
2023/12/19 01:21:44;;;;;;;;;;;;;;;;;;6341591;28;19926;-81
2023/12/19 01:24:45;;;;;;;;;;;;;;;;;;6328197;28;19954;-81
2023/12/19 01:27:45;;;;;;;;;;;;;;;;;;6344020;28;19955;-81
2023/12/19 01:30:45;;;;;;;;;;;;;;;;;;6345908;28;19915;-81
2023/12/19 01:33:45;;;;;;;;;;;;;;;;;;6315323;28;19912;-81
2023/12/19 01:36:49;;;;;;;;;;;;;;;;;;6319084;28;19916;-80
2023/12/19 01:39:49;;;;;;;;;;;;;;;;;;6338253;28;19911;-79
2023/12/19 01:42:50;;;;;;;;;;;;;;;;;;6345273;28;19964;-80
2023/12/19 01:45:51;;;;;;;;;;;;;;;;;;6329048;28;20227;-80
2023/12/19 01:48:51;;;;;;;;;;;;;;;;;;6346793;28;19945;-80
2023/12/19 01:51:51;;;;;;;;;;;;;;;;;;6347163;28;19962;-80
2023/12/19 01:54:51;;;;;;;;;;;;;;;;;;6324807;28;19989;-82
2023/12/19 01:57:51;;;;;;;;;;;;;;;;;;6346233;28;19916;-82
2023/12/19 02:00:51;;;;;;;;;;;;;;;;;;6321725;28;19920;-82
2023/12/19 02:03:52;;;;;;;;;;;;;;;;;;6329612;28;19950;-83
2023/12/19 02:06:52;;;;;;;;;;;;;;;;;;6346583;28;19943;-83
2023/12/19 02:09:52;;;;;;;;;;;;;;;;;;6326764;28;20345;-83
2023/12/19 02:12:52;;;;;;;;;;;;;;;;;;6344403;28;19908;-82
2023/12/19 02:15:52;;;;;;;;;;;;;;;;;;6338530;28;19923;-83
2023/12/19 02:18:52;;;;;;;;;;;;;;;;;;6344797;28;19919;-83
2023/12/19 02:21:52;;;;;;;;;;;;;;;;;;6346725;28;20083;-82
2023/12/19 02:24:53;;;;;;;;;;;;;;;;;;6346480;28;20268;-83
2023/12/19 02:27:53;;;;;;;;;;;;;;;;;;6326477;28;19920;-83
2023/12/19 02:30:53;;;;;;;;;;;;;;;;;;6327715;28;19916;-82
2023/12/19 02:33:53;;;;;;;;;;;;;;;;;;6334465;28;19957;-83
2023/12/19 02:36:53;;;;;;;;;;;;;;;;;;6343744;28;19924;-83
2023/12/19 02:39:53;;;;;;;;;;;;;;;;;;6345975;28;19922;-83
2023/12/19 02:42:54;;;;;;;;;;;;;;;;;;6346195;28;20368;-83
2023/12/19 02:45:54;;;;;;;;;;;;;;;;;;6333790;28;20322;-82
2023/12/19 02:48:54;;;;;;;;;;;;;;;;;;6333156;28;20368;-83
2023/12/19 02:51:54;;;;;;;;;;;;;;;;;;6323893;28;19911;-82
2023/12/19 02:54:54;;;;;;;;;;;;;;;;;;6331327;28;19964;-83
2023/12/19 02:57:54;;;;;;;;;;;;;;;;;;6332950;28;19966;-82
2023/12/19 03:00:54;;;;;;;;;;;;;;;;;;6348161;27;20475;-82
2023/12/19 03:03:55;;;;;;;;;;;;;;;;;;6318539;28;19916;-83
2023/12/19 03:06:55;;;;;;;;;;;;;;;;;;6347941;28;19908;-83
2023/12/19 03:09:55;;;;;;;;;;;;;;;;;;6327681;28;19995;-83
2023/12/19 03:12:55;;;;;;;;;;;;;;;;;;6345267;28;20379;-83
2023/12/19 03:15:55;;;;;;;;;;;;;;;;;;6350965;28;19914;-82
2023/12/19 03:18:55;;;;;;;;;;;;;;;;;;6348146;28;19955;-82
2023/12/19 03:21:56;;;;;;;;;;;;;;;;;;6339983;28;19959;-82
2023/12/19 03:24:56;;;;;;;;;;;;;;;;;;6328039;28;19950;-83
2023/12/19 03:27:56;;;;;;;;;;;;;;;;;;6349485;28;19995;-83
2023/12/19 03:30:56;;;;;;;;;;;;;;;;;;6350668;28;19907;-82
2023/12/19 03:33:56;;;;;;;;;;;;;;;;;;6341676;28;19926;-82
2023/12/19 03:36:57;;;;;;;;;;;;;;;;;;6350234;28;19912;-83
2023/12/19 03:39:57;;;;;;;;;;;;;;;;;;6349393;27;19908;-82
2023/12/19 03:42:57;;;;;;;;;;;;;;;;;;6348540;28;20238;-83
2023/12/19 03:46:01;;;;;;;;;;;;;;;;;;6348583;28;19912;-82
2023/12/19 03:49:01;;;;;;;;;;;;;;;;;;6315210;28;19955;-83
2023/12/19 03:52:01;;;;;;;;;;;;;;;;;;6339299;28;19922;-83
2023/12/19 03:55:02;;;;;;;;;;;;;;;;;;6339176;28;20477;-82
2023/12/19 03:58:02;;;;;;;;;;;;;;;;;;6346988;28;20008;-82
2023/12/19 04:01:02;;;;;;;;;;;;;;;;;;6346950;28;19927;-82
2023/12/19 04:04:03;;;;;;;;;;;;;;;;;;6338431;28;19924;-82
2023/12/19 04:07:03;;;;;;;;;;;;;;;;;;6349385;28;19912;-83
2023/12/19 04:10:03;;;;;;;;;;;;;;;;;;6345314;28;19916;-82
2023/12/19 04:13:04;;;;;;;;;;;;;;;;;;6348294;28;19920;-81
2023/12/19 04:16:04;;;;;;;;;;;;;;;;;;6328031;28;19955;-80
2023/12/19 04:19:04;;;;;;;;;;;;;;;;;;6345324;28;19971;-81
2023/12/19 04:22:04;;;;;;;;;;;;;;;;;;6346699;28;19923;-81
2023/12/19 04:25:04;;;;;;;;;;;;;;;;;;6345411;28;20318;-83
2023/12/19 04:28:05;;;;;;;;;;;;;;;;;;6329913;28;20399;-81
2023/12/19 04:31:05;;;;;;;;;;;;;;;;;;6330468;28;20006;-83
2023/12/19 04:34:05;;;;;;;;;;;;;;;;;;6348479;28;19912;-81
2023/12/19 04:37:05;;;;;;;;;;;;;;;;;;6348565;28;20429;-82
2023/12/19 04:40:05;;;;;;;;;;;;;;;;;;6329542;28;19950;-81
2023/12/19 04:43:05;;;;;;;;;;;;;;;;;;6344520;28;20371;-82
2023/12/19 04:46:05;;;;;;;;;;;;;;;;;;6345041;28;19912;-81
2023/12/19 04:49:05;;;;;;;;;;;;;;;;;;6347867;28;19919;-82
2023/12/19 04:52:06;;;;;;;;;;;;;;;;;;6338574;28;19982;-82
2023/12/19 04:55:06;;;;;;;;;;;;;;;;;;6341919;28;19912;-81
2023/12/19 04:58:06;;;;;;;;;;;;;;;;;;6337109;28;19912;-81
2023/12/19 05:01:07;;;;;;;;;;;;;;;;;;6317750;28;19927;-83
2023/12/19 05:04:07;;;;;;;;;;;;;;;;;;6345841;28;19918;-82
2023/12/19 05:07:07;;;;;;;;;;;;;;;;;;6330473;28;19911;-82
2023/12/19 05:10:08;;;;;;;;;;;;;;;;;;6327799;28;20339;-82
2023/12/19 05:13:08;;;;;;;;;;;;;;;;;;6329805;28;20295;-82
2023/12/19 05:17:23;;;;;;;;;;;;;;;;;;6287373;28;20015;-84
2023/12/19 05:20:23;;;;;;;;;;;;;;;;;;6279128;28;19936;-83
2023/12/19 05:23:23;;;;;;;;;;;;;;;;;;6277763;28;19925;-84
2023/12/19 05:26:23;;;;;;;;;;;;;;;;;;6243918;28;19967;-83
2023/12/19 05:29:23;;;;;;;;;;;;;;;;;;6268629;28;20396;-83
2023/12/19 05:32:24;;;;;;;;;;;;;;;;;;6255857;28;19971;-83
2023/12/19 05:35:24;;;;;;;;;;;;;;;;;;6262816;28;19921;-83
2023/12/19 05:38:24;;;;;;;;;;;;;;;;;;6250826;28;20051;-82
2023/12/19 05:41:24;;;;;;;;;;;;;;;;;;6254852;28;19967;-83
2023/12/19 05:44:24;;;;;;;;;;;;;;;;;;6253477;28;19917;-84
2023/12/19 05:47:24;;;;;;;;;;;;;;;;;;6267503;28;20277;-82
2023/12/19 05:50:24;;;;;;;;;;;;;;;;;;6265296;28;19917;-82
2023/12/19 05:53:25;;;;;;;;;;;;;;;;;;6252047;28;19917;-83
2023/12/19 05:56:25;;;;;;;;;;;;;;;;;;6255822;28;19924;-82
2023/12/19 05:59:25;;;;;;;;;;;;;;;;;;6282979;28;20221;-82
2023/12/19 06:02:25;;;;;;;;;;;;;;;;;;6266617;28;20379;-82
2023/12/19 06:05:25;;;;;;;;;;;;;;;;;;6252802;28;20008;-82
2023/12/19 06:08:25;;;;;;;;;;;;;;;;;;6256872;28;19960;-82
2023/12/19 06:11:29;;;;;;;;;;;;;;;;;;6257431;28;19975;-82
2023/12/19 06:14:29;;;;;;;;;;;;;;;;;;6250483;28;19914;-82
2023/12/19 06:17:29;;;;;;;;;;;;;;;;;;6252880;28;20370;-80
2023/12/19 06:20:29;;;;;;;;;;;;;;;;;;6265130;28;20278;-80
2023/12/19 06:23:29;;;;;;;;;;;;;;;;;;6246035;28;20009;-79
2023/12/19 06:26:29;;;;;;;;;;;;;;;;;;6239064;28;21263;-81
2023/12/19 06:29:29;;;;;;;;;;;;;;;;;;6243983;28;20000;-81
2023/12/19 06:32:30;;;;;;;;;;;;;;;;;;6239474;28;20004;-82
2023/12/19 06:35:31;;;;;;;;;;;;;;;;;;6236211;28;19971;-81
2023/12/19 06:38:32;;;;;;;;;;;;;;;;;;6232130;28;19971;-81
2023/12/19 06:41:32;;;;;;;;;;;;;;;;;;6223532;28;19913;-82
2023/12/19 06:44:32;;;;;;;;;;;;;;;;;;6242245;28;19967;-81
2023/12/19 06:47:33;;;;;;;;;;;;;;;;;;6227722;28;19917;-81
2023/12/19 06:50:34;;;;;;;;;;;;;;;;;;6235304;28;19913;-82
2023/12/19 06:53:34;;;;;;;;;;;;;;;;;;6237538;28;19913;-82
2023/12/19 06:56:34;;;;;;;;;;;;;;;;;;6235861;28;19932;-81
2023/12/19 06:59:34;;;;;;;;;;;;;;;;;;6243489;28;19920;-81
2023/12/19 07:02:35;;;;;;;;;;;;;;;;;;6270836;28;19931;-82
2023/12/19 07:05:35;;;;;;;;;;;;;;;;;;6271875;28;19916;-81
2023/12/19 07:08:35;;;;;;;;;;;;;;;;;;6266131;28;19908;-82
2023/12/19 07:11:35;;;;;;;;;;;;;;;;;;6268953;28;20056;-81
2023/12/19 07:14:36;;;;;;;;;;;;;;;;;;6268739;28;19988;-81
2023/12/19 07:17:37;;;;;;;;;;;;;;;;;;6251996;28;19921;-81
2023/12/19 07:20:37;;;;;;;;;;;;;;;;;;6264225;28;19966;-81
2023/12/19 07:23:37;;;;;;;;;;;;;;;;;;6260740;28;20039;-81
2023/12/19 07:26:38;;;;;;;;;;;;;;;;;;6254183;28;19959;-81
2023/12/19 07:29:38;;;;;;;;;;;;;;;;;;6266303;28;20323;-81
2023/12/19 07:32:38;;;;;;;;;;;;;;;;;;6274092;28;19916;-81
2023/12/19 07:35:38;;;;;;;;;;;;;;;;;;6262894;28;19917;-82
2023/12/19 07:38:39;;;;;;;;;;;;;;;;;;6269869;28;20347;-82
2023/12/19 07:41:39;;;;;;;;;;;;;;;;;;6271015;28;19988;-82
2023/12/19 07:44:39;;;;;;;;;;;;;;;;;;6272794;28;20285;-82
2023/12/19 07:47:39;;;;;;;;;;;;;;;;;;6259245;28;19928;-82
2023/12/19 07:50:39;;;;;;;;;;;;;;;;;;6258415;28;19917;-82
2023/12/19 07:53:39;;;;;;;;;;;;;;;;;;6260767;28;19913;-82
2023/12/19 07:56:40;;;;;;;;;;;;;;;;;;6256162;28;19917;-81
2023/12/19 07:59:40;;;;;;;;;;;;;;;;;;6264660;28;19916;-82
2023/12/19 08:02:40;;;;;;;;;;;;;;;;;;6270793;28;19928;-82
2023/12/19 08:05:45;;;;;;;;;;;;;;;;;;6269107;28;20365;-81
2023/12/19 08:08:49;;;;;;;;;;;;;;;;;;6269166;28;20374;-83
2023/12/19 08:11:49;;;;;;;;;;;;;;;;;;6254935;28;20328;-82
2023/12/19 08:14:49;;;;;;;;;;;;;;;;;;6252801;28;19972;-81
2023/12/19 08:17:49;;;;;;;;;;;;;;;;;;6276297;28;20005;-82
2023/12/19 08:20:50;;;;;;;;;;;;;;;;;;6257799;28;19918;-81
2023/12/19 08:23:51;;;;;;;;;;;;;;;;;;6270266;28;19943;-81
2023/12/19 08:26:52;;;;;;;;;;;;;;;;;;6253578;28;19908;-82
2023/12/19 08:29:52;;;;;;;;;;;;;;;;;;6263146;28;20011;-82
2023/12/19 08:32:52;;;;;;;;;;;;;;;;;;6261675;28;20008;-82
2023/12/19 08:35:52;;;;;;;;;;;;;;;;;;6275314;28;20070;-83
2023/12/19 08:38:53;;;;;;;;;;;;;;;;;;6266907;28;20390;-83
2023/12/19 08:41:53;;;;;;;;;;;;;;;;;;6254807;28;20278;-82
2023/12/19 08:44:55;;;;;;;;;;;;;;;;;;6259417;28;20270;-84
2023/12/19 08:47:55;;;;;;;;;;;;;;;;;;6265717;28;20281;-83
2023/12/19 08:50:56;;;;;;;;;;;;;;;;;;6256534;28;19913;-83
2023/12/19 08:53:56;;;;;;;;;;;;;;;;;;6246681;28;19913;-83
2023/12/19 08:56:56;;;;;;;;;;;;;;;;;;6266337;28;19921;-83
2023/12/19 08:59:57;;;;;;;;;;;;;;;;;;6272445;28;19996;-83
2023/12/19 09:02:57;;;;;;;;;;;;;;;;;;6274411;28;20343;-84
2023/12/19 09:05:57;;;;;;;;;;;;;;;;;;6264328;28;19912;-83
2023/12/19 09:08:57;;;;;;;;;;;;;;;;;;6278378;28;19916;-84
2023/12/19 09:11:57;;;;;;;;;;;;;;;;;;6277899;28;19909;-84
2023/12/19 09:14:57;;;;;;;;;;;;;;;;;;6280235;28;20003;-83
2023/12/19 09:17:58;;;;;;;;;;;;;;;;;;6277422;28;19917;-83
2023/12/19 09:20:58;;;;;;;;;;;;;;;;;;6290776;28;19913;-84
2023/12/19 09:23:58;;;;;;;;;;;;;;;;;;6270607;28;19928;-83
2023/12/19 09:26:58;;;;;;;;;;;;;;;;;;6273317;28;19915;-83
2023/12/19 09:29:58;;;;;;;;;;;;;;;;;;6268586;28;19912;-84
2023/12/19 09:32:58;;;;;;;;;;;;;;;;;;6283447;28;19917;-83
2023/12/19 09:35:59;;;;;;;;;;;;;;;;;;6289021;28;19916;-84
2023/12/19 09:38:59;;;;;;;;;;;;;;;;;;6295641;28;19939;-83
2023/12/19 09:41:59;;;;;;;;;;;;;;;;;;6276669;28;19951;-83
2023/12/19 09:44:59;;;;;;;;;;;;;;;;;;6280196;28;20017;-83
2023/12/19 09:47:59;;;;;;;;;;;;;;;;;;6287330;28;19915;-83
2023/12/19 09:51:00;;;;;;;;;;;;;;;;;;6273892;28;20386;-83
2023/12/19 09:54:00;;;;;;;;;;;;;;;;;;6297018;28;20019;-83
2023/12/19 09:57:01;;;;;;;;;;;;;;;;;;6264356;28;20549;-83
2023/12/19 10:00:07;;;;;;;;;;;;;;;;;;6279275;28;19924;-85
2023/12/19 10:03:07;;;;;;;;;;;;;;;;;;6277403;28;19928;-84
2023/12/19 10:06:09;;;;;;;;;;;;;;;;;;6278351;28;20265;-84
2023/12/19 10:09:13;;;;;;;;;;;;;;;;;;6301568;28;19923;-84
2023/12/19 10:12:13;;;;;;;;;;;;;;;;;;6295350;28;19916;-84
2023/12/19 10:15:13;;;;;;;;;;;;;;;;;;6294392;28;19990;-83
2023/12/19 10:18:14;;;;;;;;;;;;;;;;;;6284196;28;20377;-84
2023/12/19 10:21:14;;;;;;;;;;;;;;;;;;6281292;28;19924;-83
2023/12/19 10:24:14;;;;;;;;;;;;;;;;;;6295566;28;19939;-84
2023/12/19 10:27:14;;;;;;;;;;;;;;;;;;6299900;28;20383;-84
2023/12/19 10:30:14;;;;;;;;;;;;;;;;;;6288397;28;20377;-84
2023/12/19 10:33:14;;;;;;;;;;;;;;;;;;6278481;28;19917;-85
2023/12/19 10:36:15;;;;;;;;;;;;;;;;;;6281112;28;19931;-83
2023/12/19 10:39:15;;;;;;;;;;;;;;;;;;6300788;28;19935;-83
2023/12/19 10:42:15;;;;;;;;;;;;;;;;;;6286027;28;19912;-83
2023/12/19 10:45:15;;;;;;;;;;;;;;;;;;6274742;28;20365;-84
2023/12/19 10:48:15;;;;;;;;;;;;;;;;;;6266062;28;20015;-84
2023/12/19 10:51:16;;;;;;;;;;;;;;;;;;6277865;28;20003;-84
2023/12/19 10:54:16;;;;;;;;;;;;;;;;;;6281130;28;20037;-86
2023/12/19 10:57:16;;;;;;;;;;;;;;;;;;6257897;28;20058;-85
2023/12/19 11:00:21;;;;;;;;;;;;;;;;;;6286157;28;19912;-85
2023/12/19 11:03:21;;;;;;;;;;;;;;;;;;6215416;28;19925;-84
2023/12/19 11:06:22;;;;;;;;;;;;;;;;;;6224213;28;20374;-86
2023/12/19 11:09:22;;;;;;;;;;;;;;;;;;6219747;28;19918;-88
2023/12/19 11:12:23;;;;;;;;;;;;;;;;;;6204537;28;19972;-85
2023/12/19 11:15:24;;;;;;;;;;;;;;;;;;6214976;28;19914;-86
2023/12/19 11:18:26;;;;;;;;;;;;;;;;;;6207567;28;19924;-85
2023/12/19 11:21:26;;;;;;;;;;;;;;;;;;6211544;28;20028;-84
2023/12/19 11:24:26;;;;;;;;;;;;;;;;;;6223393;28;19910;-84
2023/12/19 11:27:27;;;;;;;;;;;;;;;;;;6214850;28;19924;-84
2023/12/19 11:30:27;;;;;;;;;;;;;;;;;;6225468;28;19921;-83
2023/12/19 11:33:28;;;;;;;;;;;;;;;;;;6219954;28;19917;-85
2023/12/19 11:36:29;;;;;;;;;;;;;;;;;;6220661;28;19918;-84
2023/12/19 11:39:33;;;;;;;;;;;;;;;;;;6216099;28;19969;-86
2023/12/19 11:42:33;;;;;;;;;;;;;;;;;;6209118;28;19917;-85
2023/12/19 11:45:33;;;;;;;;;;;;;;;;;;6209333;28;19921;-83
2023/12/19 11:48:34;;;;;;;;;;;;;;;;;;6219976;28;20386;-85
2023/12/19 11:51:34;;;;;;;;;;;;;;;;;;6216797;28;19914;-87
2023/12/19 11:54:35;;;;;;;;;;;;;;;;;;6211790;28;19909;-85
2023/12/19 11:57:38;;;;;;;;;;;;;;;;;;6208560;28;20352;-85
2023/12/19 12:00:39;;;;;;;;;;;;;;;;;;6221040;28;19925;-84
2023/12/19 12:03:39;;;;;;;;;;;;;;;;;;6254671;28;19913;-85
2023/12/19 12:06:39;;;;;;;;;;;;;;;;;;6261517;28;20012;-87
2023/12/19 12:09:39;;;;;;;;;;;;;;;;;;6265433;28;20169;-84
2023/12/19 12:12:39;;;;;;;;;;;;;;;;;;6268625;28;19924;-85
2023/12/19 12:15:39;;;;;;;;;;;;;;;;;;6258655;28;19913;-85
2023/12/19 12:18:39;;;;;;;;;;;;;;;;;;6266143;28;19971;-85
2023/12/19 12:21:40;;;;;;;;;;;;;;;;;;6271269;28;19921;-83
2023/12/19 12:24:40;;;;;;;;;;;;;;;;;;6267779;28;19921;-81
2023/12/19 12:27:40;;;;;;;;;;;;;;;;;;6270160;28;19913;-82
2023/12/19 12:30:40;;;;;;;;;;;;;;;;;;6257140;28;19920;-81
2023/12/19 12:33:40;;;;;;;;;;;;;;;;;;6256086;28;19965;-81
2023/12/19 12:36:41;;;;;;;;;;;;;;;;;;6265341;28;19917;-81
2023/12/19 12:39:41;;;;;;;;;;;;;;;;;;6268762;28;19920;-81
2023/12/19 12:42:41;;;;;;;;;;;;;;;;;;6254144;28;19920;-81
2023/12/19 12:45:42;;;;;;;;;;;;;;;;;;6272943;28;19913;-82
2023/12/19 12:48:43;;;;;;;;;;;;;;;;;;6269576;28;19963;-81
2023/12/19 12:51:43;;;;;;;;;;;;;;;;;;6257995;28;19963;-82
2023/12/19 12:54:44;;;;;;;;;;;;;;;;;;6271865;28;19913;-82
2023/12/19 12:57:44;;;;;;;;;;;;;;;;;;6265732;28;19917;-82
2023/12/19 13:00:44;;;;;;;;;;;;;;;;;;6253146;28;19935;-81
2023/12/19 13:03:44;;;;;;;;;;;;;;;;;;6271760;28;19916;-81
2023/12/19 13:06:45;;;;;;;;;;;;;;;;;;6267872;28;19910;-81
2023/12/19 13:09:45;;;;;;;;;;;;;;;;;;6252195;28;19913;-81
2023/12/19 13:12:45;;;;;;;;;;;;;;;;;;6266214;28;19917;-81
2023/12/19 13:15:46;;;;;;;;;;;;;;;;;;6268992;28;19917;-82
2023/12/19 13:18:47;;;;;;;;;;;;;;;;;;6256638;28;19920;-81
2023/12/19 13:21:47;;;;;;;;;;;;;;;;;;6259071;28;19947;-81
2023/12/19 13:24:48;;;;;;;;;;;;;;;;;;6273068;28;20387;-81
2023/12/19 13:27:48;;;;;;;;;;;;;;;;;;6262994;28;19919;-82
2023/12/19 13:30:51;;;;;;;;;;;;;;;;;;6266484;28;19915;-81
2023/12/19 13:33:52;;;;;;;;;;;;;;;;;;6254246;28;20297;-82
2023/12/19 13:36:52;;;;;;;;;;;;;;;;;;6267845;28;19913;-82
2023/12/19 13:39:52;;;;;;;;;;;;;;;;;;6276220;28;20323;-82
2023/12/19 13:42:52;;;;;;;;;;;;;;;;;;6257150;28;20320;-82
2023/12/19 13:45:52;;;;;;;;;;;;;;;;;;6262101;28;20004;-82
2023/12/19 13:48:53;;;;;;;;;;;;;;;;;;6270056;28;19932;-82
2023/12/19 13:51:53;;;;;;;;;;;;;;;;;;6264963;28;20365;-82
2023/12/19 13:54:53;;;;;;;;;;;;;;;;;;6275405;28;19909;-82
2023/12/19 13:57:53;;;;;;;;;;;;;;;;;;6272919;28;19924;-82
2023/12/19 14:00:54;;;;;;;;;;;;;;;;;;6263078;28;19921;-82
2023/12/19 14:03:54;;;;;;;;;;;;;;;;;;6269260;28;19971;-82
2023/12/19 14:06:55;;;;;;;;;;;;;;;;;;6272517;28;19983;-82
2023/12/19 14:09:55;;;;;;;;;;;;;;;;;;6261687;28;19924;-82
2023/12/19 14:12:55;;;;;;;;;;;;;;;;;;6274269;28;19908;-83
2023/12/19 14:15:55;;;;;;;;;;;;;;;;;;6262131;28;19924;-82
2023/12/19 14:18:55;;;;;;;;;;;;;;;;;;6269686;28;19920;-82
2023/12/19 14:21:55;;;;;;;;;;;;;;;;;;6255840;28;20396;-82
2023/12/19 14:24:57;;;;;;;;;;;;;;;;;;6257477;28;19959;-76
2023/12/19 14:27:58;;;;;;;;;;;;;;;;;;6274189;28;20021;-81
2023/12/19 14:30:58;;;;;;;;;;;;;;;;;;6273053;28;19915;-82
2023/12/19 14:33:58;;;;;;;;;;;;;;;;;;6262282;28;19912;-81
2023/12/19 14:36:58;;;;;;;;;;;;;;;;;;6263384;28;19917;-82
2023/12/19 14:39:58;;;;;;;;;;;;;;;;;;6263377;28;19970;-83
2023/12/19 14:42:58;;;;;;;;;;;;;;;;;;6273495;28;20361;-82
2023/12/19 14:45:58;;;;;;;;;;;;;;;;;;6275093;28;20066;-82
2023/12/19 14:48:59;;;;;;;;;;;;;;;;;;6251140;28;19956;-82
2023/12/19 14:52:00;;;;;;;;;;;;;;;;;;6262996;28;19927;-82
2023/12/19 14:55:00;;;;;;;;;;;;;;;;;;6271990;28;20305;-81
2023/12/19 14:58:01;;;;;;;;;;;;;;;;;;6271215;28;20005;-81
2023/12/19 15:01:01;;;;;;;;;;;;;;;;;;6264409;28;19932;-81
2023/12/19 15:04:01;;;;;;;;;;;;;;;;;;6272141;28;19944;-81
2023/12/19 15:07:01;;;;;;;;;;;;;;;;;;6265217;28;19909;-81
2023/12/19 15:10:01;;;;;;;;;;;;;;;;;;6256674;28;19927;-81
2023/12/19 15:13:02;;;;;;;;;;;;;;;;;;6259611;28;20348;-81
2023/12/19 15:16:02;;;;;;;;;;;;;;;;;;6262616;28;19913;-82
2023/12/19 15:19:02;;;;;;;;;;;;;;;;;;6265469;28;20058;-81
2023/12/19 15:22:02;;;;;;;;;;;;;;;;;;6264833;28;19909;-81
2023/12/19 15:25:02;;;;;;;;;;;;;;;;;;6272336;28;20258;-81
2023/12/19 15:28:02;;;;;;;;;;;;;;;;;;6272642;28;19928;-81
2023/12/19 15:31:03;;;;;;;;;;;;;;;;;;6272460;28;19913;-81
2023/12/19 15:34:03;;;;;;;;;;;;;;;;;;6270863;28;19909;-82
2023/12/19 15:37:03;;;;;;;;;;;;;;;;;;6255274;28;20435;-81
2023/12/19 15:40:03;;;;;;;;;;;;;;;;;;6266305;28;19917;-80
2023/12/19 15:43:04;;;;;;;;;;;;;;;;;;6248310;28;19917;-81
2023/12/19 15:46:04;;;;;;;;;;;;;;;;;;6263938;28;20337;-81
2023/12/19 15:49:04;;;;;;;;;;;;;;;;;;6271193;28;19936;-81
2023/12/19 15:52:04;;;;;;;;;;;;;;;;;;6270338;28;19913;-81
2023/12/19 15:55:04;;;;;;;;;;;;;;;;;;6267060;28;19917;-82
2023/12/19 15:58:04;;;;;;;;;;;;;;;;;;6256501;28;19917;-82
2023/12/19 16:01:04;;;;;;;;;;;;;;;;;;6259626;28;19921;-83
2023/12/19 16:04:05;;;;;;;;;;;;;;;;;;6250763;28;19913;-82
2023/12/19 16:07:05;;;;;;;;;;;;;;;;;;6258343;28;20199;-82
2023/12/19 16:10:05;;;;;;;;;;;;;;;;;;6257112;28;19913;-82
2023/12/19 16:13:07;;;;;;;;;;;;;;;;;;6265116;28;19958;-82
2023/12/19 16:16:07;;;;;;;;;;;;;;;;;;6258542;28;19917;-82
2023/12/19 16:19:07;;;;;;;;;;;;;;;;;;6263221;28;19971;-82
2023/12/19 16:22:07;;;;;;;;;;;;;;;;;;6271437;28;20368;-82
2023/12/19 16:25:07;;;;;;;;;;;;;;;;;;6271546;28;20280;-82
2023/12/19 16:28:10;;;;;;;;;;;;;;;;;;6263656;28;19917;-82
2023/12/19 16:31:10;;;;;;;;;;;;;;;;;;6248916;28;20301;-82
2023/12/19 16:34:10;;;;;;;;;;;;;;;;;;6248652;28;20011;-82
2023/12/19 16:37:10;;;;;;;;;;;;;;;;;;6246034;28;20008;-82
2023/12/19 16:40:11;;;;;;;;;;;;;;;;;;6261824;28;19917;-82
2023/12/19 16:43:11;;;;;;;;;;;;;;;;;;6257855;28;19928;-82
2023/12/19 16:46:11;;;;;;;;;;;;;;;;;;6252353;28;19936;-82
2023/12/19 16:49:11;;;;;;;;;;;;;;;;;;6258184;28;20312;-82
2023/12/19 16:52:11;;;;;;;;;;;;;;;;;;6268497;28;19909;-82
2023/12/19 16:55:12;;;;;;;;;;;;;;;;;;6261329;28;19923;-82
2023/12/19 16:58:12;;;;;;;;;;;;;;;;;;6259461;28;20403;-82
2023/12/19 17:01:12;;;;;;;;;;;;;;;;;;6265488;28;19932;-81
2023/12/19 17:04:12;;;;;;;;;;;;;;;;;;6258959;28;19913;-81
2023/12/19 17:07:12;;;;;;;;;;;;;;;;;;6248495;28;19960;-85
2023/12/19 17:10:13;;;;;;;;;;;;;;;;;;6262839;28;19936;-83
2023/12/19 17:13:13;;;;;;;;;;;;;;;;;;6267410;28;19913;-84
2023/12/19 17:16:13;;;;;;;;;;;;;;;;;;6261189;28;20133;-81
2023/12/19 17:19:13;;;;;;;;;;;;;;;;;;6257871;28;20015;-82
2023/12/19 17:22:13;;;;;;;;;;;;;;;;;;6267170;28;19913;-84
2023/12/19 17:25:13;;;;;;;;;;;;;;;;;;6269373;28;19958;-82
2023/12/19 17:28:13;;;;;;;;;;;;;;;;;;6263055;28;19909;-84
2023/12/19 17:31:14;;;;;;;;;;;;;;;;;;6256116;28;19920;-84
2023/12/19 17:34:14;;;;;;;;;;;;;;;;;;6263985;28;19909;-84
2023/12/19 17:37:14;;;;;;;;;;;;;;;;;;6265705;28;19917;-85
2023/12/19 17:40:14;;;;;;;;;;;;;;;;;;6256326;28;19924;-82
2023/12/19 17:43:15;;;;;;;;;;;;;;;;;;6262970;28;19967;-82
2023/12/19 17:46:15;;;;;;;;;;;;;;;;;;6253839;28;19913;-83
2023/12/19 17:49:15;;;;;;;;;;;;;;;;;;6257666;28;19913;-83
2023/12/19 17:52:16;;;;;;;;;;;;;;;;;;6256125;28;19920;-84
2023/12/19 17:55:16;;;;;;;;;;;;;;;;;;6270959;28;19913;-84
2023/12/19 17:58:16;;;;;;;;;;;;;;;;;;6253920;28;20010;-86
2023/12/19 18:01:16;;;;;;;;;;;;;;;;;;6265639;28;20007;-84
2023/12/19 18:04:16;;;;;;;;;;;;;;;;;;6267969;28;19913;-84
2023/12/19 18:07:16;;;;;;;;;;;;;;;;;;6250924;28;19919;-84
2023/12/19 18:10:17;;;;;;;;;;;;;;;;;;6262819;28;19958;-85
2023/12/19 18:13:17;;;;;;;;;;;;;;;;;;6264664;28;19916;-83
2023/12/19 18:16:17;;;;;;;;;;;;;;;;;;6253835;28;19923;-84
2023/12/19 18:19:17;;;;;;;;;;;;;;;;;;6247890;28;19979;-84
2023/12/19 18:22:17;;;;;;;;;;;;;;;;;;6258344;28;20005;-84
2023/12/19 18:25:17;;;;;;;;;;;;;;;;;;6262616;28;20012;-83
2023/12/19 18:28:17;;;;;;;;;;;;;;;;;;6262385;28;19971;-83
2023/12/19 18:31:18;;;;;;;;;;;;;;;;;;6262395;28;19920;-83
2023/12/19 18:34:18;;;;;;;;;;;;;;;;;;6255522;28;19924;-83
2023/12/19 18:37:18;;;;;;;;;;;;;;;;;;6264147;28;20020;-83
2023/12/19 18:40:18;;;;;;;;;;;;;;;;;;6247846;28;20270;-84
2023/12/19 18:43:21;;;;;;;;;;;;;;;;;;6267755;28;19916;-83
2023/12/19 18:46:21;;;;;;;;;;;;;;;;;;6255538;28;19913;-83
2023/12/19 18:49:24;;;;;;;;;;;;;;;;;;6257378;28;19913;-83
2023/12/19 18:52:25;;;;;;;;;;;;;;;;;;6265770;28;19913;-83
2023/12/19 18:55:25;;;;;;;;;;;;;;;;;;6250980;28;20394;-84
2023/12/19 18:58:25;;;;;;;;;;;;;;;;;;6251842;28;20474;-83
2023/12/19 19:01:25;;;;;;;;;;;;;;;;;;6264831;28;19928;-83
2023/12/19 19:04:25;;;;;;;;;;;;;;;;;;5936979;28;10000315;-84
2023/12/19 19:07:26;;;;;;;;;;;;;;;;;;6282648;28;19916;-84
2023/12/19 19:10:26;;;;;;;;;;;;;;;;;;6281937;28;19916;-84
2023/12/19 19:13:26;;;;;;;;;;;;;;;;;;6265651;28;19913;-83
2023/12/19 19:16:27;;;;;;;;;;;;;;;;;;6274031;28;19920;-83
2023/12/19 19:19:27;;;;;;;;;;;;;;;;;;6264122;28;19916;-84
2023/12/19 19:22:27;;;;;;;;;;;;;;;;;;6270941;28;20396;-84
2023/12/19 19:25:27;;;;;;;;;;;;;;;;;;6278561;28;20028;-83
2023/12/19 19:28:30;;;;;;;;;;;;;;;;;;6283998;28;19908;-83
2023/12/19 19:31:30;;;;;;;;;;;;;;;;;;6281210;28;20490;-84
2023/12/19 19:34:30;;;;;;;;;;;;;;;;;;6281215;28;19967;-83
2023/12/19 19:37:30;;;;;;;;;;;;;;;;;;6272025;28;19939;-84
2023/12/19 19:40:30;;;;;;;;;;;;;;;;;;6268029;28;19921;-83
2023/12/19 19:43:31;;;;;;;;;;;;;;;;;;6277195;28;19951;-83
2023/12/19 19:46:31;;;;;;;;;;;;;;;;;;6264345;28;20400;-84
2023/12/19 19:49:31;;;;;;;;;;;;;;;;;;6272324;28;20361;-84
2023/12/19 19:52:31;;;;;;;;;;;;;;;;;;6288800;28;19912;-82
2023/12/19 19:55:31;;;;;;;;;;;;;;;;;;6275709;28;19912;-83
2023/12/19 19:58:31;;;;;;;;;;;;;;;;;;6282020;28;19977;-82
2023/12/19 20:01:31;;;;;;;;;;;;;;;;;;6272027;28;20295;-84
2023/12/19 20:04:32;;;;;;;;;;;;;;;;;;6262379;28;19908;-84
2023/12/19 20:07:32;;;;;;;;;;;;;;;;;;6261897;28;19920;-83
2023/12/19 20:10:32;;;;;;;;;;;;;;;;;;6277975;28;19917;-84
2023/12/19 20:13:32;;;;;;;;;;;;;;;;;;6262311;28;19920;-84
2023/12/19 20:16:32;;;;;;;;;;;;;;;;;;6264248;28;19921;-84
2023/12/19 20:19:32;;;;;;;;;;;;;;;;;;6263663;28;19917;-84
2023/12/19 20:22:32;;;;;;;;;;;;;;;;;;6284635;28;19916;-84
2023/12/19 20:25:33;;;;;;;;;;;;;;;;;;6253273;28;19914;-84
2023/12/19 20:28:34;;;;;;;;;;;;;;;;;;6260372;28;19912;-83
2023/12/19 20:31:34;;;;;;;;;;;;;;;;;;6281532;28;19920;-84